Snow/Ice From: 16-12-2017 16:00 Until: 17-12-2017 16:00 warning for: Snow/Ice Level: Yellow info button

Although rather usual in this region, locally or potentially dangerous phenomena are expected. (such as local winds, summer thunderstorms, rising streams or high waves) Be aware and pay attention to the latest weather updates, especially if you carry out activities exposed to weather or close to a stream or shoreline. 


Meteo18 Weather Cam more information Meteo18 Weather Cam


Thunder radar more information blitzortung!


warning for Snow/Ice more information rain snow radar


Visit our other weather sites:

Template documentation
and downloads

And another site



Weather Underground History page Text

Daily Summary for November 13, 2017 Units:  Metric    English   Both
« Previous Day
Next Day »
Daily Weekly Monthly Yearly Custom
  High: Low: Average:
Temperature: 7.8 °C 4.2 °C 5.6 °C
Dew Point: 4.3 °C 2.1 °C 3.2 °C
Humidity: 91 % 78 % 85 %
Wind Speed: 30.6 km/h 0.0 km/h 11.8 km/h
Wind Gust: 38.6 km/h - -
Wind:- - West
Pressure: 1025.6 hPa 1016.5 hPa -
Precipitation: 0.0 mm    
Historical Graphs
 
 
Tabular Data for November 13, 2017
Time Temperature Dew Point Pressure Wind Wind Speed Wind Gust Humidity Rainfall Rate (Hourly)
00:02 4.9 °C 2.3 °C 1016.5 hPa WNW 19.3 km/h 25.7 km/h 83 % 0.0 mm
00:07 4.9 °C 2.3 °C 1016.5 hPa NW 14.5 km/h 27.4 km/h 83 % 0.0 mm
00:12 4.9 °C 2.3 °C 1016.5 hPa NNE 8.0 km/h 27.4 km/h 83 % 0.0 mm
00:17 4.9 °C 2.3 °C 1016.5 hPa NNW 8.0 km/h 27.4 km/h 83 % 0.0 mm
00:22 4.9 °C 2.3 °C 1016.5 hPa WNW 12.9 km/h 27.4 km/h 83 % 0.0 mm
00:32 4.8 °C 2.2 °C 1016.8 hPa NW 8.0 km/h 29.0 km/h 83 % 0.0 mm
00:42 4.8 °C 2.2 °C 1016.8 hPa NW 6.4 km/h 25.7 km/h 83 % 0.0 mm
00:47 4.7 °C 2.1 °C 1016.8 hPa West 12.9 km/h 25.7 km/h 83 % 0.0 mm
00:52 4.7 °C 2.2 °C 1016.8 hPa NNW 12.9 km/h 25.7 km/h 84 % 0.0 mm
00:57 4.7 °C 2.1 °C 1016.8 hPa NW 11.3 km/h 27.4 km/h 83 % 0.0 mm
01:02 4.7 °C 2.1 °C 1016.8 hPa NW 12.9 km/h 27.4 km/h 83 % 0.0 mm
01:07 4.8 °C 2.2 °C 1016.8 hPa WNW 9.7 km/h 29.0 km/h 83 % 0.0 mm
01:12 4.7 °C 2.1 °C 1017.2 hPa NNE 14.5 km/h 29.0 km/h 83 % 0.0 mm
01:17 4.7 °C 2.1 °C 1017.2 hPa NW 12.9 km/h 29.0 km/h 83 % 0.0 mm
01:22 4.7 °C 2.1 °C 1017.2 hPa NW 14.5 km/h 29.0 km/h 83 % 0.0 mm
01:32 4.7 °C 2.2 °C 1017.2 hPa NW 19.3 km/h 29.0 km/h 84 % 0.0 mm
01:37 4.7 °C 2.2 °C 1017.2 hPa WNW 27.4 km/h 29.0 km/h 84 % 0.0 mm
01:42 4.7 °C 2.2 °C 1017.5 hPa NNW 8.0 km/h 27.4 km/h 84 % 0.0 mm
01:47 4.7 °C 2.2 °C 1017.5 hPa NNW 11.3 km/h 27.4 km/h 84 % 0.0 mm
01:52 4.6 °C 2.1 °C 1017.5 hPa NW 14.5 km/h 29.0 km/h 84 % 0.0 mm
01:57 4.6 °C 2.3 °C 1017.5 hPa NW 14.5 km/h 29.0 km/h 85 % 0.0 mm
02:02 4.5 °C 2.2 °C 1017.5 hPa NW 9.7 km/h 29.0 km/h 85 % 0.0 mm
02:07 4.4 °C 2.1 °C 1017.5 hPa WNW 3.2 km/h 29.0 km/h 85 % 0.0 mm
02:12 4.4 °C 2.3 °C 1017.5 hPa WNW 9.7 km/h 29.0 km/h 86 % 0.0 mm
02:17 4.3 °C 2.2 °C 1017.5 hPa WNW 8.0 km/h 29.0 km/h 86 % 0.0 mm
02:22 4.3 °C 2.2 °C 1017.5 hPa NW 19.3 km/h 25.7 km/h 86 % 0.0 mm
02:27 4.3 °C 2.2 °C 1017.8 hPa NW 14.5 km/h 24.1 km/h 86 % 0.0 mm
02:32 4.3 °C 2.2 °C 1017.8 hPa WNW 24.1 km/h 27.4 km/h 86 % 0.0 mm
02:37 4.3 °C 2.2 °C 1017.8 hPa NNW 12.9 km/h 27.4 km/h 86 % 0.0 mm
02:42 4.3 °C 2.2 °C 1017.8 hPa WNW 4.8 km/h 27.4 km/h 86 % 0.0 mm
02:47 4.2 °C 2.2 °C 1017.8 hPa WNW 17.7 km/h 27.4 km/h 87 % 0.0 mm
02:52 4.3 °C 2.3 °C 1017.8 hPa NW 14.5 km/h 27.4 km/h 87 % 0.0 mm
02:57 4.3 °C 2.3 °C 1017.8 hPa NW 19.3 km/h 27.4 km/h 87 % 0.0 mm
03:02 4.3 °C 2.3 °C 1017.8 hPa NNW 19.3 km/h 27.4 km/h 87 % 0.0 mm
03:12 4.4 °C 2.4 °C 1017.8 hPa NNW 12.9 km/h 30.6 km/h 87 % 0.0 mm
03:17 4.4 °C 2.4 °C 1017.8 hPa NW 19.3 km/h 30.6 km/h 87 % 0.0 mm
03:22 4.5 °C 2.5 °C 1017.8 hPa NW 6.4 km/h 27.4 km/h 87 % 0.0 mm
03:27 4.6 °C 2.6 °C 1017.8 hPa North 12.9 km/h 27.4 km/h 87 % 0.0 mm
03:32 4.6 °C 2.5 °C 1017.8 hPa WNW 20.9 km/h 30.6 km/h 86 % 0.0 mm
03:37 4.7 °C 2.6 °C 1018.2 hPa NW 9.7 km/h 30.6 km/h 86 % 0.0 mm
03:42 4.2 °C 2.1 °C 1018.2 hPa NW 9.7 km/h 27.4 km/h 86 % 0.0 mm
08:42 5.1 °C 3.3 °C 1020.2 hPa NNW 20.9 km/h -1607.4 km/h 88 % 0 mm
08:47 5.2 °C 3.4 °C 1020.5 hPa North 17.7 km/h 32.2 km/h 88 % 0.0 mm
08:52 5.2 °C 3.4 °C 1020.5 hPa NNW 20.9 km/h 32.2 km/h 88 % 0.0 mm
08:57 5.2 °C 3.2 °C 1020.5 hPa North 16.1 km/h 32.2 km/h 87 % 0.0 mm
09:02 5.3 °C 3.3 °C 1020.9 hPa NNW 19.3 km/h 32.2 km/h 87 % 0.0 mm
09:12 5.3 °C 3.3 °C 1020.9 hPa NNE 19.3 km/h 37.0 km/h 87 % 0.0 mm
09:17 5.3 °C 3.3 °C 1020.9 hPa NW 17.7 km/h 27.4 km/h 87 % 0.0 mm
09:27 5.3 °C 3.3 °C 1021.2 hPa NNW 11.3 km/h 27.4 km/h 87 % 0.0 mm
09:32 5.3 °C 3.3 °C 1021.2 hPa NNW 20.9 km/h 27.4 km/h 87 % 0.0 mm
09:37 5.4 °C 3.4 °C 1021.2 hPa NNE 17.7 km/h 29.0 km/h 87 % 0.0 mm
09:42 5.4 °C 3.2 °C 1021.2 hPa NNW 11.3 km/h 29.0 km/h 86 % 0.0 mm
09:47 5.4 °C 3.4 °C 1021.2 hPa NNW 19.3 km/h 29.0 km/h 87 % 0.0 mm
09:52 5.4 °C 3.2 °C 1021.2 hPa NNE 16.1 km/h 29.0 km/h 86 % 0.0 mm
09:57 5.5 °C 3.3 °C 1021.2 hPa NNW 20.9 km/h 35.4 km/h 86 % 0.0 mm
10:02 5.5 °C 3.3 °C 1021.2 hPa North 14.5 km/h 35.4 km/h 86 % 0.0 mm
10:07 5.6 °C 3.4 °C 1021.6 hPa North 24.1 km/h 35.4 km/h 86 % 0.0 mm
10:12 5.7 °C 3.5 °C 1021.2 hPa NW 14.5 km/h 35.4 km/h 86 % 0.0 mm
10:17 5.7 °C 3.4 °C 1021.6 hPa NNW 19.3 km/h 35.4 km/h 85 % 0.0 mm
10:22 5.7 °C 3.4 °C 1021.6 hPa NNE 17.7 km/h 35.4 km/h 85 % 0.0 mm
10:32 5.7 °C 3.4 °C 1021.6 hPa NW 30.6 km/h 35.4 km/h 85 % 0.0 mm
10:42 5.8 °C 3.6 °C 1021.6 hPa North 16.1 km/h 35.4 km/h 86 % 0.0 mm
10:47 5.9 °C 3.6 °C 1021.6 hPa NW 20.9 km/h 33.8 km/h 85 % 0.0 mm
10:52 5.9 °C 3.4 °C 1021.6 hPa NW 24.1 km/h 33.8 km/h 84 % 0.0 mm
10:57 5.9 °C 3.6 °C 1021.6 hPa NNW 12.9 km/h 33.8 km/h 85 % 0.0 mm
11:02 6.0 °C 3.7 °C 1021.9 hPa NNW 17.7 km/h 33.8 km/h 85 % 0.0 mm
11:12 6.1 °C 3.8 °C 1021.9 hPa NNE 12.9 km/h 32.2 km/h 85 % 0.0 mm
11:17 6.2 °C 3.9 °C 1022.2 hPa NW 14.5 km/h 27.4 km/h 85 % 0.0 mm
11:27 6.4 °C 3.7 °C 1021.9 hPa NNE 19.3 km/h 29.0 km/h 83 % 0.0 mm
11:32 6.4 °C 3.7 °C 1021.9 hPa NNW 19.3 km/h 29.0 km/h 83 % 0.0 mm
11:37 6.6 °C 3.9 °C 1021.9 hPa North 17.7 km/h 35.4 km/h 83 % 0.0 mm
11:42 6.6 °C 3.9 °C 1021.9 hPa North 25.7 km/h 35.4 km/h 83 % 0.0 mm
11:47 6.7 °C 4.0 °C 1021.9 hPa North 20.9 km/h 35.4 km/h 83 % 0.0 mm
11:52 6.8 °C 4.1 °C 1021.9 hPa NNW 29.0 km/h 35.4 km/h 83 % 0.0 mm
11:57 6.9 °C 4.0 °C 1021.6 hPa ENE 16.1 km/h 32.2 km/h 82 % 0.0 mm
12:02 6.9 °C 4.0 °C 1021.9 hPa NNW 16.1 km/h 32.2 km/h 82 % 0.0 mm
12:12 6.9 °C 4.0 °C 1021.9 hPa North 27.4 km/h 32.2 km/h 82 % 0.0 mm
12:17 7.0 °C 4.3 °C 1021.9 hPa NNW 12.9 km/h 33.8 km/h 83 % 0.0 mm
12:27 7.1 °C 4.1 °C 1021.9 hPa NNE 24.1 km/h 35.4 km/h 81 % 0.0 mm
12:32 7.2 °C 4.3 °C 1022.2 hPa NW 12.9 km/h 35.4 km/h 82 % 0.0 mm
12:42 7.2 °C 4.0 °C 1022.2 hPa North 16.1 km/h 38.6 km/h 80 % 0.0 mm
12:52 7.2 °C 4.2 °C 1022.2 hPa NNW 16.1 km/h 35.4 km/h 81 % 0.0 mm
12:57 7.1 °C 3.9 °C 1022.2 hPa NNW 20.9 km/h 35.4 km/h 80 % 0.0 mm
13:07 7.1 °C 3.9 °C 1022.2 hPa NNW 14.5 km/h 30.6 km/h 80 % 0.0 mm
13:12 7.1 °C 4.1 °C 1022.2 hPa NNW 12.9 km/h 30.6 km/h 81 % 0.0 mm
13:17 7.1 °C 4.1 °C 1022.2 hPa NNE 11.3 km/h 30.6 km/h 81 % 0.0 mm
13:22 7.1 °C 3.9 °C 1022.2 hPa NNW 19.3 km/h 30.6 km/h 80 % 0.0 mm
13:32 7.3 °C 4.1 °C 1022.2 hPa NNW 12.9 km/h 29.0 km/h 80 % 0.0 mm
13:37 7.4 °C 4.2 °C 1022.2 hPa NNE 14.5 km/h 29.0 km/h 80 % 0.0 mm
13:42 7.5 °C 4.1 °C 1022.2 hPa NW 8.0 km/h 29.0 km/h 79 % 0.0 mm
13:47 7.4 °C 4.0 °C 1022.2 hPa North 17.7 km/h 27.4 km/h 79 % 0.0 mm
13:52 7.4 °C 4.0 °C 1022.2 hPa North 16.1 km/h 27.4 km/h 79 % 0.0 mm
13:57 7.5 °C 4.1 °C 1022.2 hPa NW 9.7 km/h 27.4 km/h 79 % 0.0 mm
14:02 7.7 °C 4.1 °C 1022.2 hPa NNW 12.9 km/h 25.7 km/h 78 % 0.0 mm
14:12 7.7 °C 4.1 °C 1022.2 hPa North 11.3 km/h 29.0 km/h 78 % 0.0 mm
14:17 7.8 °C 4.2 °C 1022.6 hPa North 19.3 km/h 29.0 km/h 78 % 0.0 mm
14:22 7.8 °C 4.2 °C 1022.2 hPa North 16.1 km/h 29.0 km/h 78 % 0.0 mm
14:27 7.7 °C 4.1 °C 1022.2 hPa NE 11.3 km/h 27.4 km/h 78 % 0.0 mm
14:32 7.7 °C 4.1 °C 1022.2 hPa NNW 24.1 km/h 27.4 km/h 78 % 0.0 mm
14:37 7.8 °C 4.2 °C 1022.6 hPa NNW 16.1 km/h 27.4 km/h 78 % 0.0 mm
14:42 7.7 °C 4.1 °C 1022.6 hPa North 16.1 km/h 25.7 km/h 78 % 0.0 mm
14:52 7.5 °C 4.1 °C 1022.6 hPa NNW 11.3 km/h 25.7 km/h 79 % 0.0 mm
14:57 7.4 °C 4.2 °C 1022.9 hPa NW 17.7 km/h 27.4 km/h 80 % 0.0 mm
15:02 7.2 °C 4.2 °C 1022.6 hPa WNW 17.7 km/h 27.4 km/h 81 % 0.0 mm
15:07 7.2 °C 4.0 °C 1022.6 hPa NNW 6.4 km/h 27.4 km/h 80 % 0.0 mm
15:12 7.2 °C 4.0 °C 1022.6 hPa NW 11.3 km/h 27.4 km/h 80 % 0.0 mm
15:17 6.9 °C 3.9 °C 1022.9 hPa NNW 9.7 km/h 27.4 km/h 81 % 0.0 mm
15:22 6.8 °C 3.9 °C 1022.9 hPa WNW 9.7 km/h 24.1 km/h 82 % 0.0 mm
15:32 6.4 °C 3.7 °C 1022.9 hPa NW 6.4 km/h 17.7 km/h 83 % 0.0 mm
15:37 6.3 °C 3.6 °C 1023.2 hPa NW 3.2 km/h 19.3 km/h 83 % 0.0 mm
15:42 6.3 °C 3.6 °C 1023.2 hPa North 6.4 km/h 19.3 km/h 83 % 0.0 mm
15:52 6.6 °C 3.9 °C 1023.2 hPa ENE 6.4 km/h 14.5 km/h 83 % 0.0 mm
15:57 6.7 °C 4.0 °C 1023.2 hPa NNW 6.4 km/h 14.5 km/h 83 % 0.0 mm
16:02 6.9 °C 4.2 °C 1023.2 hPa NNW 4.8 km/h 14.5 km/h 83 % 0.0 mm
16:12 6.9 °C 4.0 °C 1023.2 hPa NNE 9.7 km/h 17.7 km/h 82 % 0.0 mm
16:17 7.0 °C 4.1 °C 1023.2 hPa North 9.7 km/h 16.1 km/h 82 % 0.0 mm
16:22 7.0 °C 4.1 °C 1023.2 hPa NNE 16.1 km/h 19.3 km/h 82 % 0.0 mm
16:27 7.0 °C 4.1 °C 1023.2 hPa North 8.0 km/h 19.3 km/h 82 % 0.0 mm
16:32 6.9 °C 4.0 °C 1023.2 hPa NW 11.3 km/h 19.3 km/h 82 % 0.0 mm
16:42 6.8 °C 3.9 °C 1023.2 hPa NNW 9.7 km/h 19.3 km/h 82 % 0.0 mm
16:47 6.8 °C 3.6 °C 1023.2 hPa NNW 11.3 km/h 19.3 km/h 80 % 0.0 mm
16:52 6.8 °C 3.6 °C 1023.6 hPa North 3.2 km/h 22.5 km/h 80 % 0.0 mm
16:57 6.7 °C 3.5 °C 1023.6 hPa NW 4.8 km/h 22.5 km/h 80 % 0.0 mm
17:02 6.6 °C 3.6 °C 1023.6 hPa NNW 16.1 km/h 16.1 km/h 81 % 0.0 mm
17:12 6.3 °C 3.5 °C 1023.6 hPa WNW 6.4 km/h 22.5 km/h 82 % 0.0 mm
17:17 6.2 °C 3.5 °C 1023.6 hPa NW 4.8 km/h 22.5 km/h 83 % 0.0 mm
17:22 6.1 °C 3.4 °C 1023.2 hPa WNW 1.6 km/h 22.5 km/h 83 % 0.0 mm
17:27 6.1 °C 3.4 °C 1023.6 hPa West 12.9 km/h 16.1 km/h 83 % 0.0 mm
17:32 5.9 °C 3.2 °C 1023.6 hPa NNW 4.8 km/h 16.1 km/h 83 % 0.0 mm
17:42 5.7 °C 3.2 °C 1023.9 hPa NNW 3.2 km/h 14.5 km/h 84 % 0.0 mm
17:47 5.6 °C 3.3 °C 1023.9 hPa NNW 8.0 km/h 12.9 km/h 85 % 0.0 mm
17:52 5.6 °C 3.3 °C 1023.9 hPa NNW 4.8 km/h 16.1 km/h 85 % 0.0 mm
17:57 5.5 °C 3.2 °C 1024.3 hPa WNW 1.6 km/h 16.1 km/h 85 % 0.0 mm
18:02 5.4 °C 3.1 °C 1024.3 hPa NNW 4.8 km/h 16.1 km/h 85 % 0.0 mm
18:12 5.4 °C 3.1 °C 1024.3 hPa NNW 1.6 km/h 16.1 km/h 85 % 0.0 mm
18:17 5.6 °C 3.1 °C 1024.3 hPa NNW 8.0 km/h 14.5 km/h 84 % 0.0 mm
18:22 5.7 °C 3.2 °C 1024.3 hPa NNW 9.7 km/h 14.5 km/h 84 % 0.0 mm
18:32 5.7 °C 3.0 °C 1024.3 hPa NNW 11.3 km/h 16.1 km/h 83 % 0.0 mm
18:42 5.5 °C 3.0 °C 1024.6 hPa NNW 3.2 km/h 14.5 km/h 84 % 0.0 mm
18:47 5.4 °C 2.9 °C 1024.6 hPa NNE 4.8 km/h 12.9 km/h 84 % 0.0 mm
18:52 5.3 °C 3.0 °C 1024.6 hPa NNW 3.2 km/h 12.9 km/h 85 % 0.0 mm
18:57 5.2 °C 2.9 °C 1024.6 hPa NNW 1.6 km/h 11.3 km/h 85 % 0.0 mm
19:02 5.1 °C 3.0 °C 1024.6 hPa NNE 3.2 km/h 9.7 km/h 86 % 0.0 mm
19:12 4.9 °C 2.9 °C 1024.9 hPa Calm   8.0 km/h 87 % 0.0 mm
19:17 5.0 °C 3.0 °C 1024.9 hPa North 3.2 km/h 8.0 km/h 87 % 0.0 mm
19:22 5.1 °C 3.1 °C 1024.9 hPa NNW 4.8 km/h 9.7 km/h 87 % 0.0 mm
19:27 4.9 °C 2.9 °C 1024.9 hPa WNW 4.8 km/h 9.7 km/h 87 % 0.0 mm
19:32 4.9 °C 3.1 °C 1024.9 hPa NW 4.8 km/h 9.7 km/h 88 % 0.0 mm
19:37 5.1 °C 3.3 °C 1024.9 hPa North 4.8 km/h 12.9 km/h 88 % 0.0 mm
19:42 5.1 °C 3.1 °C 1024.9 hPa NNW 6.4 km/h 12.9 km/h 87 % 0.0 mm
19:47 5.1 °C 3.1 °C 1024.9 hPa NNE 6.4 km/h 12.9 km/h 87 % 0.0 mm
19:52 5.1 °C 3.1 °C 1024.9 hPa NNW 6.4 km/h 12.9 km/h 87 % 0.0 mm
19:57 5.1 °C 3.1 °C 1024.9 hPa NNW 8.0 km/h 17.7 km/h 87 % 0.0 mm
20:02 5.2 °C 3.1 °C 1024.9 hPa North 14.5 km/h 17.7 km/h 86 % 0.0 mm
20:12 5.3 °C 3.1 °C 1024.9 hPa North 8.0 km/h 19.3 km/h 86 % 0.0 mm
20:17 5.4 °C 3.2 °C 1024.9 hPa North 12.9 km/h 19.3 km/h 86 % 0.0 mm
20:22 5.4 °C 3.2 °C 1024.9 hPa North 6.4 km/h 19.3 km/h 86 % 0.0 mm
20:27 5.4 °C 3.2 °C 1025.3 hPa NNE 6.4 km/h 19.3 km/h 86 % 0.0 mm
20:32 5.5 °C 3.3 °C 1025.3 hPa North 9.7 km/h 17.7 km/h 86 % 0.0 mm
20:42 5.6 °C 3.4 °C 1025.3 hPa Calm   14.5 km/h 86 % 0.0 mm
20:47 5.6 °C 3.4 °C 1025.3 hPa North 9.7 km/h 12.9 km/h 86 % 0.0 mm
20:52 5.5 °C 3.3 °C 1025.3 hPa NW 6.4 km/h 12.9 km/h 86 % 0.0 mm
20:57 5.3 °C 3.3 °C 1025.3 hPa NNW 3.2 km/h 12.9 km/h 87 % 0.0 mm
21:02 5.2 °C 3.2 °C 1025.3 hPa North 8.0 km/h 12.9 km/h 87 % 0.0 mm
21:07 5.1 °C 3.3 °C 1025.3 hPa NNW 8.0 km/h 11.3 km/h 88 % 0.0 mm
21:12 4.9 °C 3.1 °C 1025.3 hPa NNW 8.0 km/h 12.9 km/h 88 % 0.0 mm
21:22 4.8 °C 3.1 °C 1025.3 hPa North 4.8 km/h 12.9 km/h 89 % 0.0 mm
21:27 4.7 °C 3.0 °C 1025.3 hPa NW 4.8 km/h 14.5 km/h 89 % 0.0 mm
21:37 4.6 °C 2.9 °C 1025.3 hPa WNW 4.8 km/h 14.5 km/h 89 % 0.0 mm
21:42 4.5 °C 3.0 °C 1025.3 hPa NNW 4.8 km/h 12.9 km/h 90 % 0.0 mm
21:52 4.6 °C 3.3 °C 1025.3 hPa North 14.5 km/h 14.5 km/h 91 % 0.0 mm
21:57 4.7 °C 3.2 °C 1025.3 hPa North 3.2 km/h 17.7 km/h 90 % 0.0 mm
22:02 4.7 °C 3.2 °C 1025.3 hPa NNW 8.0 km/h 17.7 km/h 90 % 0.0 mm
22:12 4.7 °C 3.2 °C 1025.6 hPa WNW 9.7 km/h 12.9 km/h 90 % 0.0 mm
22:22 4.8 °C 3.3 °C 1025.3 hPa NW 8.0 km/h 17.7 km/h 90 % 0.0 mm
22:32 4.9 °C 3.2 °C 1025.3 hPa NW 9.7 km/h 20.9 km/h 89 % 0.0 mm
22:37 4.9 °C 3.2 °C 1025.6 hPa WNW 4.8 km/h 20.9 km/h 89 % 0.0 mm
22:42 4.9 °C 3.2 °C 1025.6 hPa North 8.0 km/h 20.9 km/h 89 % 0.0 mm
22:47 4.9 °C 3.2 °C 1025.6 hPa NNW 8.0 km/h 20.9 km/h 89 % 0.0 mm
22:52 4.8 °C 3.1 °C 1025.6 hPa North 14.5 km/h 22.5 km/h 89 % 0.0 mm
22:57 4.9 °C 3.2 °C 1025.6 hPa NNW 6.4 km/h 22.5 km/h 89 % 0.0 mm
23:02 4.9 °C 3.2 °C 1025.6 hPa NNW 6.4 km/h 20.9 km/h 89 % 0.0 mm
23:07 4.9 °C 3.1 °C 1025.6 hPa NW 4.8 km/h 19.3 km/h 88 % 0.0 mm
23:12 4.9 °C 3.1 °C 1025.6 hPa NNW 8.0 km/h 17.7 km/h 88 % 0.0 mm
23:17 4.8 °C 3.0 °C 1025.6 hPa North 4.8 km/h 17.7 km/h 88 % 0.0 mm
23:27 4.4 °C 2.7 °C 1025.6 hPa NNE 8.0 km/h 12.9 km/h 89 % 0.0 mm
23:32 4.3 °C 2.6 °C 1025.6 hPa NNE 6.4 km/h 11.3 km/h 89 % 0.0 mm
23:42 4.3 °C 2.6 °C 1025.6 hPa WNW 6.4 km/h 16.1 km/h 89 % 0.0 mm
23:47 4.3 °C 2.8 °C 1025.6 hPa North 14.5 km/h 17.7 km/h 90 % 0.0 mm
23:57 4.3 °C 2.8 °C 1025.3 hPa North 16.1 km/h 20.9 km/h 90 % 0.0 mm
Meteo18
Compliments of Weather Underground - 4 mb

Script developed by  Jim McMurry - jmcmurry@mwt.net Adapted for the template by  Wim van der Kuil - Leuven-Template.eu

You find our weather info also at:

European Weather Network

Weather Underground

Equipment we use:

Weather-station
Davis Vue

Weather-program
Meteohub

Weather-server
Raspberry PI 2 B+

Provider
1 and 1

Davis Vue

Meteohub

Raspberry PI 2 B+

1 and 1